sensor_id;sensor_type;location;lat;lon;timestamp;P1;durP1;ratioP1;P2;durP2;ratioP2
70787;SDS011;68385;47.752;19.100;2023-06-22T00:01:12;1.60;;;0.37;;
70787;SDS011;68385;47.752;19.100;2023-06-22T00:04:14;1.17;;;0.30;;
70787;SDS011;68385;47.752;19.100;2023-06-22T00:07:16;2.60;;;0.70;;
70787;SDS011;68385;47.752;19.100;2023-06-22T00:10:18;1.27;;;0.40;;
70787;SDS011;68385;47.752;19.100;2023-06-22T00:13:20;1.20;;;0.37;;
70787;SDS011;68385;47.752;19.100;2023-06-22T00:16:22;1.92;;;0.60;;
70787;SDS011;68385;47.752;19.100;2023-06-22T00:19:24;1.00;;;0.30;;
70787;SDS011;68385;47.752;19.100;2023-06-22T00:22:26;1.13;;;0.30;;
70787;SDS011;68385;47.752;19.100;2023-06-22T00:25:30;1.15;;;0.40;;
70787;SDS011;68385;47.752;19.100;2023-06-22T00:28:32;1.30;;;0.50;;
70787;SDS011;68385;47.752;19.100;2023-06-22T00:31:33;3.30;;;1.95;;
70787;SDS011;68385;47.752;19.100;2023-06-22T00:34:35;1.55;;;0.50;;
70787;SDS011;68385;47.752;19.100;2023-06-22T00:37:37;1.30;;;0.40;;
70787;SDS011;68385;47.752;19.100;2023-06-22T00:40:42;1.40;;;0.80;;
70787;SDS011;68385;47.752;19.100;2023-06-22T00:43:44;1.65;;;0.60;;
70787;SDS011;68385;47.752;19.100;2023-06-22T00:46:46;1.23;;;0.30;;
70787;SDS011;68385;47.752;19.100;2023-06-22T00:49:49;1.37;;;0.40;;
70787;SDS011;68385;47.752;19.100;2023-06-22T00:52:56;1.00;;;0.30;;
70787;SDS011;68385;47.752;19.100;2023-06-22T00:55:58;1.92;;;0.50;;
70787;SDS011;68385;47.752;19.100;2023-06-22T00:59:00;1.30;;;0.60;;
70787;SDS011;68385;47.752;19.100;2023-06-22T01:02:05;1.27;;;0.55;;
70787;SDS011;68385;47.752;19.100;2023-06-22T01:05:07;1.48;;;0.30;;
70787;SDS011;68385;47.752;19.100;2023-06-22T01:08:15;1.00;;;0.30;;
70787;SDS011;68385;47.752;19.100;2023-06-22T01:11:32;1.10;;;0.35;;
70787;SDS011;68385;47.752;19.100;2023-06-22T01:14:49;1.10;;;0.40;;
70787;SDS011;68385;47.752;19.100;2023-06-22T01:17:55;1.45;;;0.40;;
70787;SDS011;68385;47.752;19.100;2023-06-22T01:20:58;1.12;;;0.32;;
70787;SDS011;68385;47.752;19.100;2023-06-22T01:24:06;1.30;;;0.37;;
70787;SDS011;68385;47.752;19.100;2023-06-22T01:28:19;2.55;;;1.30;;
70787;SDS011;68385;47.752;19.100;2023-06-22T01:31:05;1.00;;;0.30;;
70787;SDS011;68385;47.752;19.100;2023-06-22T01:34:08;1.37;;;0.50;;
70787;SDS011;68385;47.752;19.100;2023-06-22T01:37:11;1.27;;;0.30;;
70787;SDS011;68385;47.752;19.100;2023-06-22T01:40:13;1.57;;;0.57;;
70787;SDS011;68385;47.752;19.100;2023-06-22T01:43:15;1.10;;;0.32;;
70787;SDS011;68385;47.752;19.100;2023-06-22T01:46:17;1.10;;;0.30;;
70787;SDS011;68385;47.752;19.100;2023-06-22T01:49:20;1.25;;;0.30;;
70787;SDS011;68385;47.752;19.100;2023-06-22T01:52:23;3.42;;;0.57;;
70787;SDS011;68385;47.752;19.100;2023-06-22T01:55:25;1.67;;;1.03;;
70787;SDS011;68385;47.752;19.100;2023-06-22T01:58:27;1.37;;;0.57;;
70787;SDS011;68385;47.752;19.100;2023-06-22T02:01:31;1.80;;;0.70;;
70787;SDS011;68385;47.752;19.100;2023-06-22T02:04:44;0.90;;;0.20;;
70787;SDS011;68385;47.752;19.100;2023-06-22T02:07:52;1.10;;;0.30;;
70787;SDS011;68385;47.752;19.100;2023-06-22T02:11:00;1.17;;;0.30;;
70787;SDS011;68385;47.752;19.100;2023-06-22T02:14:04;1.90;;;0.30;;
70787;SDS011;68385;47.752;19.100;2023-06-22T02:17:08;1.65;;;0.40;;
70787;SDS011;68385;47.752;19.100;2023-06-22T02:20:14;2.15;;;1.00;;
70787;SDS011;68385;47.752;19.100;2023-06-22T02:23:16;1.37;;;0.50;;
70787;SDS011;68385;47.752;19.100;2023-06-22T02:26:18;1.53;;;0.40;;
70787;SDS011;68385;47.752;19.100;2023-06-22T02:29:20;1.30;;;0.50;;
70787;SDS011;68385;47.752;19.100;2023-06-22T02:32:21;1.10;;;0.30;;
70787;SDS011;68385;47.752;19.100;2023-06-22T02:35:32;2.47;;;0.85;;
70787;SDS011;68385;47.752;19.100;2023-06-22T02:38:36;1.27;;;0.47;;
70787;SDS011;68385;47.752;19.100;2023-06-22T02:41:38;0.90;;;0.20;;
70787;SDS011;68385;47.752;19.100;2023-06-22T02:44:40;0.90;;;0.20;;
70787;SDS011;68385;47.752;19.100;2023-06-22T02:47:42;1.00;;;0.30;;
70787;SDS011;68385;47.752;19.100;2023-06-22T02:50:44;1.35;;;0.40;;
70787;SDS011;68385;47.752;19.100;2023-06-22T02:53:46;3.17;;;1.15;;
70787;SDS011;68385;47.752;19.100;2023-06-22T02:56:48;1.33;;;0.53;;
70787;SDS011;68385;47.752;19.100;2023-06-22T02:59:52;1.73;;;0.68;;
70787;SDS011;68385;47.752;19.100;2023-06-22T03:02:54;1.73;;;0.75;;
70787;SDS011;68385;47.752;19.100;2023-06-22T03:05:56;1.33;;;0.45;;
70787;SDS011;68385;47.752;19.100;2023-06-22T03:09:01;1.00;;;0.30;;
70787;SDS011;68385;47.752;19.100;2023-06-22T03:12:05;1.33;;;0.40;;
70787;SDS011;68385;47.752;19.100;2023-06-22T03:15:08;1.85;;;0.40;;
70787;SDS011;68385;47.752;19.100;2023-06-22T03:18:13;1.85;;;0.82;;
70787;SDS011;68385;47.752;19.100;2023-06-22T03:21:15;0.90;;;0.20;;
70787;SDS011;68385;47.752;19.100;2023-06-22T03:24:18;1.20;;;0.30;;
70787;SDS011;68385;47.752;19.100;2023-06-22T03:27:20;0.93;;;0.23;;
70787;SDS011;68385;47.752;19.100;2023-06-22T03:30:22;5.25;;;0.75;;
70787;SDS011;68385;47.752;19.100;2023-06-22T03:33:24;1.45;;;0.52;;
70787;SDS011;68385;47.752;19.100;2023-06-22T03:36:25;1.10;;;0.30;;
70787;SDS011;68385;47.752;19.100;2023-06-22T03:39:27;2.90;;;0.60;;
70787;SDS011;68385;47.752;19.100;2023-06-22T03:42:29;1.53;;;0.37;;
70787;SDS011;68385;47.752;19.100;2023-06-22T03:45:31;1.33;;;0.35;;
70787;SDS011;68385;47.752;19.100;2023-06-22T03:48:33;5.80;;;0.90;;
70787;SDS011;68385;47.752;19.100;2023-06-22T03:51:34;1.20;;;0.30;;
70787;SDS011;68385;47.752;19.100;2023-06-22T03:54:36;1.37;;;0.40;;
70787;SDS011;68385;47.752;19.100;2023-06-22T03:57:38;2.07;;;0.70;;
70787;SDS011;68385;47.752;19.100;2023-06-22T04:00:40;1.00;;;0.30;;
70787;SDS011;68385;47.752;19.100;2023-06-22T04:03:41;1.20;;;0.30;;
70787;SDS011;68385;47.752;19.100;2023-06-22T04:06:43;1.00;;;0.20;;
70787;SDS011;68385;47.752;19.100;2023-06-22T04:09:45;3.72;;;0.30;;
70787;SDS011;68385;47.752;19.100;2023-06-22T04:12:47;1.27;;;0.30;;
70787;SDS011;68385;47.752;19.100;2023-06-22T04:15:49;2.37;;;0.30;;
70787;SDS011;68385;47.752;19.100;2023-06-22T04:18:51;1.27;;;0.37;;
70787;SDS011;68385;47.752;19.100;2023-06-22T04:21:53;1.10;;;0.37;;
70787;SDS011;68385;47.752;19.100;2023-06-22T04:24:55;1.08;;;0.30;;
70787;SDS011;68385;47.752;19.100;2023-06-22T04:27:57;1.10;;;0.30;;
70787;SDS011;68385;47.752;19.100;2023-06-22T04:30:58;1.10;;;0.32;;
70787;SDS011;68385;47.752;19.100;2023-06-22T04:34:04;1.48;;;0.60;;
70787;SDS011;68385;47.752;19.100;2023-06-22T04:37:07;1.00;;;0.30;;
70787;SDS011;68385;47.752;19.100;2023-06-22T04:40:09;4.12;;;0.50;;
70787;SDS011;68385;47.752;19.100;2023-06-22T04:43:11;1.50;;;0.40;;
70787;SDS011;68385;47.752;19.100;2023-06-22T04:46:13;1.50;;;0.45;;
70787;SDS011;68385;47.752;19.100;2023-06-22T04:49:14;1.58;;;0.40;;
70787;SDS011;68385;47.752;19.100;2023-06-22T04:52:16;1.62;;;0.50;;
70787;SDS011;68385;47.752;19.100;2023-06-22T04:55:21;1.20;;;0.40;;
70787;SDS011;68385;47.752;19.100;2023-06-22T04:58:23;1.37;;;0.50;;
70787;SDS011;68385;47.752;19.100;2023-06-22T05:01:29;1.60;;;0.85;;
70787;SDS011;68385;47.752;19.100;2023-06-22T05:04:33;1.30;;;0.30;;
70787;SDS011;68385;47.752;19.100;2023-06-22T05:07:37;1.85;;;0.60;;
70787;SDS011;68385;47.752;19.100;2023-06-22T05:10:41;1.30;;;0.47;;
70787;SDS011;68385;47.752;19.100;2023-06-22T05:13:59;1.10;;;0.30;;
70787;SDS011;68385;47.752;19.100;2023-06-22T05:17:01;1.45;;;0.50;;
70787;SDS011;68385;47.752;19.100;2023-06-22T05:20:05;1.87;;;0.68;;
70787;SDS011;68385;47.752;19.100;2023-06-22T05:23:08;1.05;;;0.32;;
70787;SDS011;68385;47.752;19.100;2023-06-22T05:26:10;1.58;;;0.43;;
70787;SDS011;68385;47.752;19.100;2023-06-22T05:29:11;2.80;;;1.50;;
70787;SDS011;68385;47.752;19.100;2023-06-22T05:32:14;2.80;;;1.23;;
70787;SDS011;68385;47.752;19.100;2023-06-22T05:35:17;1.20;;;0.40;;
70787;SDS011;68385;47.752;19.100;2023-06-22T05:38:19;1.30;;;0.40;;
70787;SDS011;68385;47.752;19.100;2023-06-22T05:41:21;1.52;;;0.50;;
70787;SDS011;68385;47.752;19.100;2023-06-22T05:44:25;2.47;;;0.80;;
70787;SDS011;68385;47.752;19.100;2023-06-22T05:47:27;1.60;;;0.40;;
70787;SDS011;68385;47.752;19.100;2023-06-22T05:50:29;1.30;;;0.50;;
70787;SDS011;68385;47.752;19.100;2023-06-22T05:53:32;1.45;;;0.60;;
70787;SDS011;68385;47.752;19.100;2023-06-22T05:56:33;7.12;;;2.10;;
70787;SDS011;68385;47.752;19.100;2023-06-22T05:59:36;5.33;;;0.83;;
70787;SDS011;68385;47.752;19.100;2023-06-22T06:02:39;1.52;;;0.55;;
70787;SDS011;68385;47.752;19.100;2023-06-22T06:05:45;1.40;;;0.50;;
70787;SDS011;68385;47.752;19.100;2023-06-22T06:08:47;1.90;;;0.60;;
70787;SDS011;68385;47.752;19.100;2023-06-22T06:11:49;2.05;;;0.60;;
70787;SDS011;68385;47.752;19.100;2023-06-22T06:14:51;1.90;;;0.90;;
70787;SDS011;68385;47.752;19.100;2023-06-22T06:17:57;2.10;;;0.70;;
70787;SDS011;68385;47.752;19.100;2023-06-22T06:20:59;1.50;;;0.50;;
70787;SDS011;68385;47.752;19.100;2023-06-22T06:24:01;1.40;;;0.50;;
70787;SDS011;68385;47.752;19.100;2023-06-22T06:27:02;3.53;;;0.80;;
70787;SDS011;68385;47.752;19.100;2023-06-22T06:30:06;4.83;;;1.27;;
70787;SDS011;68385;47.752;19.100;2023-06-22T06:33:09;1.52;;;0.50;;
70787;SDS011;68385;47.752;19.100;2023-06-22T06:36:11;2.15;;;1.15;;
70787;SDS011;68385;47.752;19.100;2023-06-22T06:39:13;1.50;;;0.60;;
70787;SDS011;68385;47.752;19.100;2023-06-22T06:42:19;1.90;;;0.70;;
70787;SDS011;68385;47.752;19.100;2023-06-22T06:45:22;1.50;;;0.53;;
70787;SDS011;68385;47.752;19.100;2023-06-22T06:48:24;1.67;;;0.60;;
70787;SDS011;68385;47.752;19.100;2023-06-22T06:51:26;2.83;;;1.35;;
70787;SDS011;68385;47.752;19.100;2023-06-22T06:54:29;3.35;;;1.25;;
70787;SDS011;68385;47.752;19.100;2023-06-22T06:57:32;1.77;;;0.70;;
70787;SDS011;68385;47.752;19.100;2023-06-22T07:00:35;1.33;;;0.43;;
70787;SDS011;68385;47.752;19.100;2023-06-22T07:03:37;1.62;;;0.50;;
70787;SDS011;68385;47.752;19.100;2023-06-22T07:06:39;2.55;;;0.95;;
70787;SDS011;68385;47.752;19.100;2023-06-22T07:09:40;1.95;;;0.75;;
70787;SDS011;68385;47.752;19.100;2023-06-22T07:12:42;1.45;;;0.52;;
70787;SDS011;68385;47.752;19.100;2023-06-22T07:15:46;4.40;;;1.03;;
70787;SDS011;68385;47.752;19.100;2023-06-22T07:18:48;1.77;;;0.80;;
70787;SDS011;68385;47.752;19.100;2023-06-22T07:21:50;2.37;;;0.95;;
70787;SDS011;68385;47.752;19.100;2023-06-22T07:24:55;2.03;;;1.08;;
70787;SDS011;68385;47.752;19.100;2023-06-22T07:28:01;1.70;;;0.82;;
70787;SDS011;68385;47.752;19.100;2023-06-22T07:31:07;1.90;;;0.80;;
70787;SDS011;68385;47.752;19.100;2023-06-22T07:34:13;1.90;;;0.70;;
70787;SDS011;68385;47.752;19.100;2023-06-22T07:37:15;2.58;;;0.77;;
70787;SDS011;68385;47.752;19.100;2023-06-22T07:40:17;1.48;;;0.57;;
70787;SDS011;68385;47.752;19.100;2023-06-22T07:43:19;1.70;;;0.80;;
70787;SDS011;68385;47.752;19.100;2023-06-22T07:46:23;2.90;;;0.77;;
70787;SDS011;68385;47.752;19.100;2023-06-22T07:49:28;2.03;;;1.30;;
70787;SDS011;68385;47.752;19.100;2023-06-22T07:52:31;1.50;;;0.60;;
70787;SDS011;68385;47.752;19.100;2023-06-22T07:55:37;2.25;;;0.68;;
70787;SDS011;68385;47.752;19.100;2023-06-22T07:58:39;1.73;;;0.80;;
70787;SDS011;68385;47.752;19.100;2023-06-22T08:01:42;1.70;;;0.60;;
70787;SDS011;68385;47.752;19.100;2023-06-22T08:04:44;2.28;;;1.12;;
70787;SDS011;68385;47.752;19.100;2023-06-22T08:07:47;2.70;;;0.93;;
70787;SDS011;68385;47.752;19.100;2023-06-22T08:10:49;5.50;;;0.85;;
70787;SDS011;68385;47.752;19.100;2023-06-22T08:13:51;1.90;;;0.85;;
70787;SDS011;68385;47.752;19.100;2023-06-22T08:16:54;1.80;;;0.90;;
70787;SDS011;68385;47.752;19.100;2023-06-22T08:19:59;2.78;;;0.80;;
70787;SDS011;68385;47.752;19.100;2023-06-22T08:23:01;2.80;;;1.00;;
70787;SDS011;68385;47.752;19.100;2023-06-22T08:26:07;2.37;;;1.15;;
70787;SDS011;68385;47.752;19.100;2023-06-22T08:29:09;2.92;;;1.37;;
70787;SDS011;68385;47.752;19.100;2023-06-22T08:32:13;3.20;;;1.43;;
70787;SDS011;68385;47.752;19.100;2023-06-22T08:35:18;2.25;;;1.00;;
70787;SDS011;68385;47.752;19.100;2023-06-22T08:38:22;3.30;;;1.23;;
70787;SDS011;68385;47.752;19.100;2023-06-22T08:41:25;2.17;;;1.00;;
70787;SDS011;68385;47.752;19.100;2023-06-22T08:44:26;1.80;;;0.90;;
70787;SDS011;68385;47.752;19.100;2023-06-22T08:47:32;2.70;;;1.33;;
70787;SDS011;68385;47.752;19.100;2023-06-22T08:50:34;2.60;;;1.23;;
70787;SDS011;68385;47.752;19.100;2023-06-22T08:53:39;1.85;;;1.00;;
70787;SDS011;68385;47.752;19.100;2023-06-22T08:56:45;2.00;;;1.08;;
70787;SDS011;68385;47.752;19.100;2023-06-22T08:59:52;1.95;;;0.90;;
70787;SDS011;68385;47.752;19.100;2023-06-22T09:02:58;2.23;;;1.30;;
70787;SDS011;68385;47.752;19.100;2023-06-22T09:06:04;1.70;;;0.80;;
70787;SDS011;68385;47.752;19.100;2023-06-22T09:09:16;2.53;;;0.85;;
70787;SDS011;68385;47.752;19.100;2023-06-22T09:12:22;1.95;;;1.00;;
70787;SDS011;68385;47.752;19.100;2023-06-22T09:15:27;3.15;;;1.23;;
70787;SDS011;68385;47.752;19.100;2023-06-22T09:18:30;1.73;;;0.80;;
70787;SDS011;68385;47.752;19.100;2023-06-22T09:21:33;2.72;;;0.90;;
70787;SDS011;68385;47.752;19.100;2023-06-22T09:24:43;2.25;;;1.33;;
70787;SDS011;68385;47.752;19.100;2023-06-22T09:27:46;1.95;;;1.00;;
70787;SDS011;68385;47.752;19.100;2023-06-22T09:30:50;2.35;;;1.23;;
70787;SDS011;68385;47.752;19.100;2023-06-22T09:33:58;3.27;;;1.93;;
70787;SDS011;68385;47.752;19.100;2023-06-22T09:37:03;2.10;;;1.23;;
70787;SDS011;68385;47.752;19.100;2023-06-22T09:40:07;2.20;;;1.20;;
70787;SDS011;68385;47.752;19.100;2023-06-22T09:43:15;2.58;;;1.20;;
70787;SDS011;68385;47.752;19.100;2023-06-22T09:46:17;3.97;;;1.42;;
70787;SDS011;68385;47.752;19.100;2023-06-22T09:49:19;3.40;;;1.43;;
70787;SDS011;68385;47.752;19.100;2023-06-22T09:52:41;1.70;;;0.80;;
70787;SDS011;68385;47.752;19.100;2023-06-22T09:55:49;2.10;;;1.10;;
70787;SDS011;68385;47.752;19.100;2023-06-22T09:58:51;3.83;;;1.37;;
70787;SDS011;68385;47.752;19.100;2023-06-22T10:02:06;2.17;;;1.20;;
70787;SDS011;68385;47.752;19.100;2023-06-22T10:05:09;2.00;;;1.03;;
70787;SDS011;68385;47.752;19.100;2023-06-22T10:08:12;2.53;;;1.10;;
70787;SDS011;68385;47.752;19.100;2023-06-22T10:11:15;2.80;;;1.37;;
70787;SDS011;68385;47.752;19.100;2023-06-22T10:14:17;1.70;;;0.80;;
70787;SDS011;68385;47.752;19.100;2023-06-22T10:17:19;2.45;;;1.50;;
70787;SDS011;68385;47.752;19.100;2023-06-22T10:20:21;2.90;;;1.17;;
70787;SDS011;68385;47.752;19.100;2023-06-22T10:23:26;3.92;;;1.45;;
70787;SDS011;68385;47.752;19.100;2023-06-22T10:26:29;2.70;;;1.67;;
70787;SDS011;68385;47.752;19.100;2023-06-22T10:29:32;1.85;;;0.88;;
70787;SDS011;68385;47.752;19.100;2023-06-22T10:32:39;2.30;;;1.27;;
70787;SDS011;68385;47.752;19.100;2023-06-22T10:35:43;2.00;;;1.07;;
70787;SDS011;68385;47.752;19.100;2023-06-22T10:38:45;1.70;;;0.82;;
70787;SDS011;68385;47.752;19.100;2023-06-22T10:41:48;4.30;;;1.67;;
70787;SDS011;68385;47.752;19.100;2023-06-22T10:44:50;2.75;;;1.50;;
70787;SDS011;68385;47.752;19.100;2023-06-22T10:47:52;2.17;;;1.12;;
70787;SDS011;68385;47.752;19.100;2023-06-22T10:50:54;2.90;;;1.60;;
70787;SDS011;68385;47.752;19.100;2023-06-22T10:53:56;3.90;;;1.67;;
70787;SDS011;68385;47.752;19.100;2023-06-22T10:56:58;2.50;;;1.58;;
70787;SDS011;68385;47.752;19.100;2023-06-22T11:00:00;2.00;;;0.90;;
70787;SDS011;68385;47.752;19.100;2023-06-22T11:03:06;2.03;;;1.23;;
70787;SDS011;68385;47.752;19.100;2023-06-22T11:06:08;2.63;;;1.60;;
70787;SDS011;68385;47.752;19.100;2023-06-22T11:09:10;2.83;;;1.87;;
70787;SDS011;68385;47.752;19.100;2023-06-22T11:12:17;2.30;;;1.40;;
70787;SDS011;68385;47.752;19.100;2023-06-22T11:15:20;2.60;;;1.20;;
70787;SDS011;68385;47.752;19.100;2023-06-22T11:18:24;2.87;;;1.92;;
70787;SDS011;68385;47.752;19.100;2023-06-22T11:21:27;3.67;;;1.13;;
70787;SDS011;68385;47.752;19.100;2023-06-22T11:24:29;2.50;;;1.40;;
70787;SDS011;68385;47.752;19.100;2023-06-22T11:27:31;2.15;;;1.30;;
70787;SDS011;68385;47.752;19.100;2023-06-22T11:30:35;2.75;;;1.10;;
70787;SDS011;68385;47.752;19.100;2023-06-22T11:33:38;2.22;;;1.17;;
70787;SDS011;68385;47.752;19.100;2023-06-22T11:36:39;2.60;;;1.70;;
70787;SDS011;68385;47.752;19.100;2023-06-22T11:39:42;3.95;;;1.90;;
70787;SDS011;68385;47.752;19.100;2023-06-22T11:42:48;2.20;;;1.20;;
70787;SDS011;68385;47.752;19.100;2023-06-22T11:45:50;2.45;;;1.20;;
70787;SDS011;68385;47.752;19.100;2023-06-22T11:48:52;2.10;;;1.23;;
70787;SDS011;68385;47.752;19.100;2023-06-22T11:51:54;2.07;;;1.13;;
70787;SDS011;68385;47.752;19.100;2023-06-22T11:54:56;2.50;;;1.50;;
70787;SDS011;68385;47.752;19.100;2023-06-22T11:58:01;2.20;;;1.10;;
70787;SDS011;68385;47.752;19.100;2023-06-22T12:01:05;2.72;;;0.98;;
70787;SDS011;68385;47.752;19.100;2023-06-22T12:04:07;2.47;;;1.67;;
70787;SDS011;68385;47.752;19.100;2023-06-22T12:07:12;2.13;;;1.20;;
70787;SDS011;68385;47.752;19.100;2023-06-22T12:10:14;3.58;;;1.50;;
70787;SDS011;68385;47.752;19.100;2023-06-22T12:13:18;2.92;;;1.70;;
70787;SDS011;68385;47.752;19.100;2023-06-22T12:16:21;2.30;;;1.10;;
70787;SDS011;68385;47.752;19.100;2023-06-22T12:19:23;14.30;;;1.90;;
70787;SDS011;68385;47.752;19.100;2023-06-22T12:22:25;3.03;;;1.40;;
70787;SDS011;68385;47.752;19.100;2023-06-22T12:25:27;3.62;;;1.58;;
70787;SDS011;68385;47.752;19.100;2023-06-22T12:28:30;5.10;;;1.58;;
70787;SDS011;68385;47.752;19.100;2023-06-22T12:31:31;2.35;;;1.58;;
70787;SDS011;68385;47.752;19.100;2023-06-22T12:34:34;2.17;;;1.27;;
70787;SDS011;68385;47.752;19.100;2023-06-22T12:37:36;2.30;;;1.40;;
70787;SDS011;68385;47.752;19.100;2023-06-22T12:40:38;2.30;;;1.48;;
70787;SDS011;68385;47.752;19.100;2023-06-22T12:43:40;2.30;;;1.42;;
70787;SDS011;68385;47.752;19.100;2023-06-22T12:46:42;2.47;;;1.60;;
70787;SDS011;68385;47.752;19.100;2023-06-22T12:49:44;4.85;;;2.35;;
70787;SDS011;68385;47.752;19.100;2023-06-22T12:52:46;2.37;;;1.30;;
70787;SDS011;68385;47.752;19.100;2023-06-22T12:55:48;2.17;;;1.40;;
70787;SDS011;68385;47.752;19.100;2023-06-22T12:58:49;3.00;;;1.40;;
70787;SDS011;68385;47.752;19.100;2023-06-22T13:01:51;2.28;;;1.30;;
70787;SDS011;68385;47.752;19.100;2023-06-22T13:04:57;2.45;;;1.35;;
70787;SDS011;68385;47.752;19.100;2023-06-22T13:07:59;3.60;;;1.67;;
70787;SDS011;68385;47.752;19.100;2023-06-22T13:11:01;2.53;;;1.27;;
70787;SDS011;68385;47.752;19.100;2023-06-22T13:14:03;2.75;;;1.62;;
70787;SDS011;68385;47.752;19.100;2023-06-22T13:17:07;3.05;;;1.80;;
70787;SDS011;68385;47.752;19.100;2023-06-22T13:20:09;2.30;;;1.50;;
70787;SDS011;68385;47.752;19.100;2023-06-22T13:23:13;2.40;;;1.60;;
70787;SDS011;68385;47.752;19.100;2023-06-22T13:26:15;2.67;;;1.83;;
70787;SDS011;68385;47.752;19.100;2023-06-22T13:29:17;2.45;;;1.55;;
70787;SDS011;68385;47.752;19.100;2023-06-22T13:32:19;2.87;;;1.48;;
70787;SDS011;68385;47.752;19.100;2023-06-22T13:35:21;2.90;;;1.50;;
70787;SDS011;68385;47.752;19.100;2023-06-22T13:38:23;3.80;;;2.00;;
70787;SDS011;68385;47.752;19.100;2023-06-22T13:41:25;2.33;;;1.42;;
70787;SDS011;68385;47.752;19.100;2023-06-22T13:44:27;2.65;;;1.60;;
70787;SDS011;68385;47.752;19.100;2023-06-22T13:47:30;2.95;;;1.83;;
70787;SDS011;68385;47.752;19.100;2023-06-22T13:50:32;2.03;;;1.23;;
70787;SDS011;68385;47.752;19.100;2023-06-22T13:53:34;4.00;;;1.50;;
70787;SDS011;68385;47.752;19.100;2023-06-22T13:56:36;2.30;;;1.40;;
70787;SDS011;68385;47.752;19.100;2023-06-22T13:59:38;3.58;;;1.73;;
70787;SDS011;68385;47.752;19.100;2023-06-22T14:02:40;1.98;;;1.17;;
70787;SDS011;68385;47.752;19.100;2023-06-22T14:05:43;2.50;;;1.60;;
70787;SDS011;68385;47.752;19.100;2023-06-22T14:08:45;2.90;;;1.77;;
70787;SDS011;68385;47.752;19.100;2023-06-22T14:11:47;2.33;;;1.50;;
70787;SDS011;68385;47.752;19.100;2023-06-22T14:14:49;2.33;;;1.40;;
70787;SDS011;68385;47.752;19.100;2023-06-22T14:17:51;2.17;;;1.30;;
70787;SDS011;68385;47.752;19.100;2023-06-22T14:20:53;8.32;;;2.10;;
70787;SDS011;68385;47.752;19.100;2023-06-22T14:23:55;2.00;;;1.13;;
70787;SDS011;68385;47.752;19.100;2023-06-22T14:26:57;2.50;;;1.50;;
70787;SDS011;68385;47.752;19.100;2023-06-22T14:30:00;2.22;;;1.42;;
70787;SDS011;68385;47.752;19.100;2023-06-22T14:33:12;2.20;;;1.42;;
70787;SDS011;68385;47.752;19.100;2023-06-22T14:36:14;4.47;;;1.60;;
70787;SDS011;68385;47.752;19.100;2023-06-22T14:39:19;1.90;;;1.07;;
70787;SDS011;68385;47.752;19.100;2023-06-22T14:42:22;3.47;;;1.60;;
70787;SDS011;68385;47.752;19.100;2023-06-22T14:45:24;3.28;;;1.62;;
70787;SDS011;68385;47.752;19.100;2023-06-22T14:48:26;3.75;;;1.80;;
70787;SDS011;68385;47.752;19.100;2023-06-22T14:51:29;3.12;;;1.90;;
70787;SDS011;68385;47.752;19.100;2023-06-22T14:54:31;2.37;;;1.50;;
70787;SDS011;68385;47.752;19.100;2023-06-22T14:57:33;2.42;;;1.62;;
70787;SDS011;68385;47.752;19.100;2023-06-22T15:00:35;3.35;;;2.05;;
70787;SDS011;68385;47.752;19.100;2023-06-22T15:03:37;3.00;;;2.05;;
70787;SDS011;68385;47.752;19.100;2023-06-22T15:06:39;2.58;;;1.60;;
70787;SDS011;68385;47.752;19.100;2023-06-22T15:09:42;2.67;;;1.30;;
70787;SDS011;68385;47.752;19.100;2023-06-22T15:12:46;2.35;;;1.42;;
70787;SDS011;68385;47.752;19.100;2023-06-22T15:15:48;2.15;;;1.35;;
70787;SDS011;68385;47.752;19.100;2023-06-22T15:18:51;2.67;;;1.10;;
70787;SDS011;68385;47.752;19.100;2023-06-22T15:21:52;2.10;;;1.17;;
70787;SDS011;68385;47.752;19.100;2023-06-22T15:24:54;2.47;;;1.03;;
70787;SDS011;68385;47.752;19.100;2023-06-22T15:27:59;2.15;;;1.30;;
70787;SDS011;68385;47.752;19.100;2023-06-22T15:31:01;2.37;;;1.35;;
70787;SDS011;68385;47.752;19.100;2023-06-22T15:34:03;2.15;;;1.25;;
70787;SDS011;68385;47.752;19.100;2023-06-22T15:37:05;4.93;;;2.40;;
70787;SDS011;68385;47.752;19.100;2023-06-22T15:40:07;3.70;;;1.73;;
70787;SDS011;68385;47.752;19.100;2023-06-22T15:43:10;2.22;;;1.37;;
70787;SDS011;68385;47.752;19.100;2023-06-22T15:46:15;2.30;;;1.27;;
70787;SDS011;68385;47.752;19.100;2023-06-22T15:49:19;4.70;;;1.70;;
70787;SDS011;68385;47.752;19.100;2023-06-22T15:52:21;2.58;;;1.65;;
70787;SDS011;68385;47.752;19.100;2023-06-22T15:55:23;2.87;;;1.30;;
70787;SDS011;68385;47.752;19.100;2023-06-22T15:58:25;2.10;;;1.25;;
70787;SDS011;68385;47.752;19.100;2023-06-22T16:01:27;4.22;;;1.10;;
70787;SDS011;68385;47.752;19.100;2023-06-22T16:04:29;2.10;;;1.20;;
70787;SDS011;68385;47.752;19.100;2023-06-22T16:07:31;1.87;;;0.90;;
70787;SDS011;68385;47.752;19.100;2023-06-22T16:10:33;2.20;;;1.20;;
70787;SDS011;68385;47.752;19.100;2023-06-22T16:13:35;2.45;;;1.50;;
70787;SDS011;68385;47.752;19.100;2023-06-22T16:16:38;2.35;;;1.42;;
70787;SDS011;68385;47.752;19.100;2023-06-22T16:19:40;3.85;;;1.30;;
70787;SDS011;68385;47.752;19.100;2023-06-22T16:22:42;3.42;;;1.50;;
70787;SDS011;68385;47.752;19.100;2023-06-22T16:25:44;3.53;;;1.07;;
70787;SDS011;68385;47.752;19.100;2023-06-22T16:28:46;2.20;;;1.37;;
70787;SDS011;68385;47.752;19.100;2023-06-22T16:31:47;2.60;;;1.62;;
70787;SDS011;68385;47.752;19.100;2023-06-22T16:34:49;2.85;;;1.25;;
70787;SDS011;68385;47.752;19.100;2023-06-22T16:37:54;2.15;;;1.27;;
70787;SDS011;68385;47.752;19.100;2023-06-22T16:40:57;1.97;;;1.10;;
70787;SDS011;68385;47.752;19.100;2023-06-22T16:43:59;2.55;;;1.23;;
70787;SDS011;68385;47.752;19.100;2023-06-22T16:47:06;2.37;;;1.10;;
70787;SDS011;68385;47.752;19.100;2023-06-22T16:50:11;2.20;;;1.00;;
70787;SDS011;68385;47.752;19.100;2023-06-22T16:53:13;2.55;;;1.23;;
70787;SDS011;68385;47.752;19.100;2023-06-22T16:56:15;4.57;;;1.57;;
70787;SDS011;68385;47.752;19.100;2023-06-22T16:59:16;3.12;;;1.40;;
70787;SDS011;68385;47.752;19.100;2023-06-22T17:02:19;3.10;;;1.40;;
70787;SDS011;68385;47.752;19.100;2023-06-22T17:05:21;2.12;;;1.08;;
70787;SDS011;68385;47.752;19.100;2023-06-22T17:08:25;3.08;;;1.20;;
70787;SDS011;68385;47.752;19.100;2023-06-22T17:11:27;1.90;;;1.00;;
70787;SDS011;68385;47.752;19.100;2023-06-22T17:14:30;4.45;;;1.25;;
70787;SDS011;68385;47.752;19.100;2023-06-22T17:17:32;1.70;;;0.80;;
70787;SDS011;68385;47.752;19.100;2023-06-22T17:20:35;2.53;;;1.48;;
70787;SDS011;68385;47.752;19.100;2023-06-22T17:23:36;3.55;;;1.30;;
70787;SDS011;68385;47.752;19.100;2023-06-22T17:26:39;1.90;;;0.90;;
70787;SDS011;68385;47.752;19.100;2023-06-22T17:29:41;1.70;;;0.70;;
70787;SDS011;68385;47.752;19.100;2023-06-22T17:32:46;1.90;;;0.93;;
70787;SDS011;68385;47.752;19.100;2023-06-22T17:35:49;1.90;;;1.00;;
70787;SDS011;68385;47.752;19.100;2023-06-22T17:38:57;2.90;;;1.30;;
70787;SDS011;68385;47.752;19.100;2023-06-22T17:42:00;1.67;;;0.77;;
70787;SDS011;68385;47.752;19.100;2023-06-22T17:45:02;1.95;;;0.77;;
70787;SDS011;68385;47.752;19.100;2023-06-22T17:48:04;1.98;;;1.08;;
70787;SDS011;68385;47.752;19.100;2023-06-22T17:51:09;2.12;;;1.12;;
70787;SDS011;68385;47.752;19.100;2023-06-22T17:54:11;2.00;;;1.00;;
70787;SDS011;68385;47.752;19.100;2023-06-22T17:57:14;2.70;;;1.17;;
70787;SDS011;68385;47.752;19.100;2023-06-22T18:00:18;2.25;;;1.35;;
70787;SDS011;68385;47.752;19.100;2023-06-22T18:03:24;2.20;;;1.20;;
70787;SDS011;68385;47.752;19.100;2023-06-22T18:06:27;2.33;;;0.93;;